createdAt,value
2017-11-05T00:00:45.547Z,13.60
2017-11-05T00:03:13.843Z,13.60
2017-11-05T00:05:41.381Z,13.50
2017-11-05T00:08:09.660Z,13.60
2017-11-05T00:10:37.933Z,13.50
2017-11-05T00:13:06.224Z,13.50
2017-11-05T00:15:34.585Z,13.50
2017-11-05T00:18:02.875Z,13.40
2017-11-05T00:20:31.173Z,13.40
2017-11-05T00:22:58.695Z,13.40
2017-11-05T00:25:26.965Z,13.30
2017-11-05T00:27:56.018Z,13.30
2017-11-05T00:30:23.746Z,13.30
2017-11-05T00:32:52.021Z,13.20
2017-11-05T00:35:19.570Z,13.20
2017-11-05T00:37:47.858Z,13.10
2017-11-05T00:40:15.377Z,13.10
2017-11-05T00:42:42.918Z,13.10
2017-11-05T00:45:10.439Z,13.10
2017-11-05T00:47:37.963Z,13.10
2017-11-05T00:50:05.516Z,13.10
2017-11-05T00:52:33.800Z,13.10
2017-11-05T00:55:01.322Z,13.10
2017-11-05T00:57:28.870Z,13.10
2017-11-05T00:59:56.380Z,13.20
2017-11-05T01:02:24.657Z,13.20
2017-11-05T01:04:52.962Z,13.20
2017-11-05T01:07:20.479Z,13.20
2017-11-05T01:09:48.772Z,13.10
2017-11-05T01:12:17.151Z,13.10
2017-11-05T01:14:45.432Z,13.10
2017-11-05T01:17:13.709Z,13.00
2017-11-05T01:19:42.027Z,13.00
2017-11-05T01:22:09.545Z,13.00
2017-11-05T01:24:37.844Z,13.00
2017-11-05T01:27:05.403Z,13.00
2017-11-05T01:29:32.916Z,13.00
2017-11-05T01:32:00.443Z,12.90
2017-11-05T01:34:28.019Z,12.80
2017-11-05T01:36:55.548Z,12.80
2017-11-05T01:39:23.053Z,12.80
2017-11-05T01:41:50.610Z,12.70
2017-11-05T01:44:18.147Z,12.70
2017-11-05T01:46:45.689Z,12.60
2017-11-05T01:49:13.247Z,12.60
2017-11-05T01:51:40.771Z,12.60
2017-11-05T01:54:09.044Z,12.50
2017-11-05T01:56:37.339Z,12.50
2017-11-05T01:59:04.871Z,12.50
2017-11-05T02:01:33.140Z,12.60
2017-11-05T02:04:01.449Z,12.50
2017-11-05T02:06:29.022Z,12.50
2017-11-05T02:08:56.533Z,12.50
2017-11-05T02:11:24.086Z,12.60
2017-11-05T02:13:52.401Z,12.50
2017-11-05T02:16:19.945Z,12.50
2017-11-05T02:18:48.271Z,12.40
2017-11-05T02:21:15.776Z,12.40
2017-11-05T02:23:44.095Z,12.30
2017-11-05T02:26:11.628Z,12.30
2017-11-05T02:28:39.143Z,12.30
2017-11-05T02:31:06.668Z,12.20
2017-11-05T02:33:34.204Z,12.20
2017-11-05T02:36:01.724Z,12.10
2017-11-05T02:38:29.250Z,12.10
2017-11-05T02:40:56.799Z,12.00
2017-11-05T02:43:24.300Z,11.90
2017-11-05T02:45:51.823Z,11.80
2017-11-05T02:48:19.365Z,11.80
2017-11-05T02:50:46.894Z,11.70
2017-11-05T02:53:15.169Z,11.60
2017-11-05T02:55:43.488Z,11.60
2017-11-05T02:58:10.992Z,11.60
2017-11-05T03:00:38.505Z,11.50
2017-11-05T03:03:06.062Z,11.60
2017-11-05T03:05:33.602Z,11.50
2017-11-05T03:08:01.151Z,11.50
2017-11-05T03:10:29.473Z,11.50
2017-11-05T03:12:57.007Z,11.50
2017-11-05T03:15:24.521Z,11.50
2017-11-05T03:17:52.071Z,11.50
2017-11-05T03:20:19.584Z,11.40
2017-11-05T03:22:47.092Z,11.30
2017-11-05T03:25:15.400Z,11.30
2017-11-05T03:27:43.049Z,11.20
2017-11-05T03:30:11.329Z,11.20
2017-11-05T03:32:39.642Z,11.20
2017-11-05T03:35:07.175Z,11.20
2017-11-05T03:37:34.691Z,11.20
2017-11-05T03:40:02.250Z,11.10
2017-11-05T03:42:29.764Z,11.10
2017-11-05T03:44:57.277Z,11.10
2017-11-05T03:47:24.811Z,11.10
2017-11-05T03:49:52.343Z,11.10
2017-11-05T03:52:19.867Z,11.10
2017-11-05T03:54:48.164Z,11.10
2017-11-05T03:57:15.740Z,11.10
2017-11-05T03:59:43.255Z,11.10
2017-11-05T04:02:11.562Z,11.00
2017-11-05T04:04:39.092Z,11.00
2017-11-05T04:07:07.372Z,11.00
2017-11-05T04:09:35.677Z,11.00
2017-11-05T04:12:03.193Z,11.00
2017-11-05T04:14:30.805Z,11.00
2017-11-05T04:16:58.352Z,11.00
2017-11-05T04:19:25.924Z,11.00
2017-11-05T04:21:53.453Z,11.00
2017-11-05T04:24:21.019Z,11.00
2017-11-05T04:26:48.554Z,11.00
2017-11-05T04:29:16.836Z,11.00
2017-11-05T04:31:45.144Z,11.00
2017-11-05T04:34:12.657Z,11.00
2017-11-05T04:36:40.168Z,11.00
2017-11-05T04:39:07.730Z,11.00
2017-11-05T04:41:35.241Z,11.00
2017-11-05T04:44:03.526Z,11.00
2017-11-05T04:46:31.095Z,10.90
2017-11-05T04:48:59.387Z,11.00
2017-11-05T04:51:26.892Z,10.90
2017-11-05T04:53:54.437Z,10.90
2017-11-05T04:56:21.967Z,10.90
2017-11-05T04:58:49.483Z,10.90
2017-11-05T05:01:17.031Z,10.90
2017-11-05T05:03:44.541Z,10.90
2017-11-05T05:06:12.070Z,10.90
2017-11-05T05:08:40.524Z,10.90
2017-11-05T05:11:08.051Z,10.90
2017-11-05T05:13:35.592Z,10.90
2017-11-05T05:16:03.125Z,10.80
2017-11-05T05:18:31.409Z,10.60
2017-11-05T05:20:59.698Z,10.60
2017-11-05T05:23:27.246Z,10.60
2017-11-05T05:25:55.525Z,10.50
2017-11-05T05:28:23.037Z,10.50
2017-11-05T05:30:50.590Z,10.50
2017-11-05T05:33:18.118Z,10.50
2017-11-05T05:35:45.644Z,10.50
2017-11-05T05:38:13.949Z,10.40
2017-11-05T05:40:41.482Z,10.40
2017-11-05T05:43:09.770Z,10.40
2017-11-05T05:45:37.308Z,10.40
2017-11-05T05:48:04.835Z,10.40
2017-11-05T05:50:32.348Z,10.40
2017-11-05T05:52:59.907Z,10.40
2017-11-05T05:55:27.421Z,10.40
2017-11-05T05:57:54.940Z,10.40
2017-11-05T06:00:22.521Z,10.40
2017-11-05T06:02:50.027Z,10.40
2017-11-05T06:05:18.296Z,10.50
2017-11-05T06:07:46.619Z,10.50
2017-11-05T06:10:14.138Z,10.40
2017-11-05T06:12:42.434Z,10.40
2017-11-05T06:15:09.992Z,10.40
2017-11-05T06:17:37.535Z,10.40
2017-11-05T06:20:05.828Z,10.30
2017-11-05T06:22:33.381Z,10.30
2017-11-05T06:25:00.922Z,10.30
2017-11-05T06:27:29.219Z,10.30
2017-11-05T06:29:56.779Z,10.30
2017-11-05T06:32:24.321Z,10.40
2017-11-05T06:34:52.619Z,10.40
2017-11-05T06:37:20.171Z,10.40
2017-11-05T06:39:47.696Z,10.30
2017-11-05T06:42:15.227Z,10.40
2017-11-05T06:44:42.778Z,10.40
2017-11-05T06:47:10.309Z,10.40
2017-11-05T06:49:37.843Z,10.30
2017-11-05T06:52:06.270Z,10.30
2017-11-05T06:54:33.798Z,10.30
2017-11-05T06:57:02.091Z,10.30
2017-11-05T06:59:29.649Z,10.20
2017-11-05T07:01:57.178Z,10.20
2017-11-05T07:04:25.466Z,10.20
2017-11-05T07:06:53.778Z,10.10
2017-11-05T07:09:21.303Z,10.10
2017-11-05T07:11:49.599Z,10.00
2017-11-05T07:14:17.150Z,10.00
2017-11-05T07:16:44.675Z,9.90
2017-11-05T07:19:12.199Z,9.90
2017-11-05T07:21:39.760Z,9.90
2017-11-05T07:24:07.283Z,9.80
2017-11-05T07:26:34.807Z,9.70
2017-11-05T07:29:02.354Z,9.70
2017-11-05T07:31:29.870Z,9.70
2017-11-05T07:33:57.391Z,9.70
2017-11-05T07:36:25.738Z,9.70
2017-11-05T07:38:53.262Z,9.70
2017-11-05T07:41:20.779Z,9.80
2017-11-05T07:43:49.099Z,9.80
2017-11-05T07:46:16.626Z,9.80
2017-11-05T07:48:44.942Z,9.80
2017-11-05T07:51:12.495Z,9.80
2017-11-05T07:53:40.018Z,9.80
2017-11-05T07:56:08.314Z,9.80
2017-11-05T07:58:35.872Z,9.80
2017-11-05T08:01:03.394Z,9.90
2017-11-05T08:03:30.927Z,9.90
2017-11-05T08:05:58.469Z,9.90
2017-11-05T08:08:25.990Z,10.00
2017-11-05T08:10:54.283Z,9.90
2017-11-05T08:13:21.827Z,9.90
2017-11-05T08:15:50.128Z,10.00
2017-11-05T08:18:17.651Z,10.00
2017-11-05T08:20:45.267Z,10.00
2017-11-05T08:23:12.794Z,10.10
2017-11-05T08:25:40.317Z,10.10
2017-11-05T08:28:07.872Z,10.10
2017-11-05T08:30:35.452Z,10.00
2017-11-05T08:33:03.743Z,10.20
2017-11-05T08:35:31.299Z,10.20
2017-11-05T08:37:59.587Z,10.20
2017-11-05T08:40:27.111Z,10.20
2017-11-05T08:42:54.663Z,10.20
2017-11-05T08:45:22.202Z,10.20
2017-11-05T08:47:49.730Z,10.30
2017-11-05T08:50:17.270Z,10.30
2017-11-05T08:52:45.560Z,10.20
2017-11-05T08:55:13.087Z,10.20
2017-11-05T08:57:41.403Z,10.30
2017-11-05T09:00:08.928Z,10.20
2017-11-05T09:02:37.218Z,10.20
2017-11-05T09:05:04.779Z,10.20
2017-11-05T09:07:33.063Z,9.80
2017-11-05T09:10:01.390Z,9.60
2017-11-05T09:12:28.938Z,9.60
2017-11-05T09:14:56.450Z,9.30
2017-11-05T09:17:24.730Z,8.80
2017-11-05T09:19:52.283Z,8.80
2017-11-05T09:22:20.615Z,8.80
2017-11-05T09:24:48.138Z,8.80
2017-11-05T09:27:15.690Z,8.80
2017-11-05T09:29:43.209Z,8.70
2017-11-05T09:32:10.722Z,8.60
2017-11-05T09:34:38.262Z,8.70
2017-11-05T09:37:05.782Z,8.70
2017-11-05T09:39:33.294Z,8.60
2017-11-05T09:42:00.839Z,8.60
2017-11-05T09:44:28.365Z,8.70
2017-11-05T09:46:55.950Z,8.70
2017-11-05T09:49:23.493Z,8.70
2017-11-05T09:51:51.778Z,8.70
2017-11-05T09:54:20.063Z,8.70
2017-11-05T09:56:47.611Z,8.70
2017-11-05T09:59:15.902Z,8.70
2017-11-05T10:01:43.430Z,8.70
2017-11-05T10:04:10.986Z,8.70
2017-11-05T10:06:38.499Z,8.60
2017-11-05T10:09:06.022Z,8.70
2017-11-05T10:11:33.588Z,8.60
2017-11-05T10:14:01.127Z,8.50
2017-11-05T10:16:28.638Z,8.50
2017-11-05T10:18:56.186Z,8.40
2017-11-05T10:21:23.714Z,8.40
2017-11-05T10:23:51.995Z,8.30
2017-11-05T10:26:20.307Z,8.30
2017-11-05T10:28:47.827Z,8.20
2017-11-05T10:31:16.119Z,8.20
2017-11-05T10:33:43.656Z,8.20
2017-11-05T10:36:11.980Z,8.20
2017-11-05T10:38:39.537Z,8.20
2017-11-05T10:41:07.076Z,8.20
2017-11-05T10:43:34.687Z,8.20
2017-11-05T10:46:03.059Z,8.00
2017-11-05T10:48:30.587Z,8.00
2017-11-05T10:50:58.184Z,8.00
2017-11-05T10:53:25.743Z,8.00
2017-11-05T10:55:53.267Z,8.00
2017-11-05T10:58:20.821Z,8.00
2017-11-05T11:00:48.589Z,8.00
2017-11-05T11:03:16.174Z,8.00
2017-11-05T11:05:44.022Z,8.00
2017-11-05T11:08:11.789Z,8.00
2017-11-05T11:10:39.363Z,8.00
2017-11-05T11:13:06.911Z,7.90
2017-11-05T11:15:34.466Z,8.00
2017-11-05T11:18:02.023Z,8.00
2017-11-05T11:20:29.545Z,8.00
2017-11-05T11:22:57.111Z,7.90
2017-11-05T11:25:24.898Z,7.90
2017-11-05T11:27:52.764Z,7.90
2017-11-05T11:30:20.430Z,7.90
2017-11-05T11:32:48.122Z,7.90
2017-11-05T11:35:15.732Z,7.90
2017-11-05T11:37:43.286Z,7.80
2017-11-05T11:40:10.839Z,7.80
2017-11-05T11:42:39.449Z,7.90
2017-11-05T11:45:07.815Z,7.90
2017-11-05T11:47:35.330Z,7.80
2017-11-05T11:50:03.647Z,8.00
2017-11-05T11:52:31.429Z,8.00
2017-11-05T11:54:58.977Z,8.00
2017-11-05T11:57:26.527Z,8.00
2017-11-05T11:59:54.091Z,8.00
2017-11-05T12:02:21.871Z,8.10
2017-11-05T12:04:49.738Z,8.20
2017-11-05T12:07:17.311Z,8.10
2017-11-05T12:09:45.060Z,8.20
2017-11-05T12:12:12.616Z,8.30
2017-11-05T12:14:40.246Z,8.40
2017-11-05T12:17:08.543Z,8.50
2017-11-05T12:19:36.219Z,8.50
2017-11-05T12:22:04.562Z,8.50
2017-11-05T12:24:32.148Z,8.50
2017-11-05T12:26:59.678Z,8.50
2017-11-05T12:29:27.481Z,8.60
2017-11-05T12:31:55.044Z,8.70
2017-11-05T12:34:22.639Z,8.90
2017-11-05T12:36:50.980Z,9.00
2017-11-05T12:39:18.527Z,9.00
2017-11-05T12:41:46.304Z,9.00
2017-11-05T12:44:14.166Z,8.90
2017-11-05T12:46:42.031Z,9.10
2017-11-05T12:49:09.829Z,9.20
2017-11-05T12:51:38.175Z,9.20
2017-11-05T12:54:05.938Z,9.20
2017-11-05T12:56:33.491Z,9.10
2017-11-05T12:59:01.421Z,9.10
2017-11-05T13:01:29.159Z,9.10
2017-11-05T13:03:57.711Z,9.20
2017-11-05T13:06:25.291Z,9.20
2017-11-05T13:08:52.827Z,9.10
2017-11-05T13:11:20.412Z,9.10
2017-11-05T13:13:47.932Z,9.00
2017-11-05T13:16:15.466Z,8.90
2017-11-05T13:18:43.988Z,8.90
2017-11-05T13:21:11.854Z,8.90
2017-11-05T13:23:39.395Z,9.00
2017-11-05T13:26:06.956Z,9.00
2017-11-05T13:28:34.751Z,9.00
2017-11-05T13:31:02.538Z,9.30
2017-11-05T13:33:31.083Z,9.40
2017-11-05T13:35:58.775Z,9.40
2017-11-05T13:38:26.386Z,9.40
2017-11-05T13:40:53.948Z,9.50
2017-11-05T13:43:21.560Z,9.50
2017-11-05T13:45:49.189Z,9.50
2017-11-05T13:48:16.950Z,9.40
2017-11-05T13:50:44.520Z,9.40
2017-11-05T13:53:12.811Z,9.40
2017-11-05T13:55:40.755Z,9.50
2017-11-05T13:58:08.339Z,9.50
2017-11-05T14:00:36.181Z,9.50
2017-11-05T14:03:04.048Z,9.40
2017-11-05T14:05:31.915Z,9.40
2017-11-05T14:07:59.782Z,9.40
2017-11-05T14:10:28.366Z,9.30
2017-11-05T14:12:55.934Z,9.20
2017-11-05T14:15:23.687Z,9.20
2017-11-05T14:17:51.555Z,9.20
2017-11-05T14:20:19.097Z,9.20
2017-11-05T14:22:47.085Z,9.10
2017-11-05T14:25:14.971Z,9.00
2017-11-05T14:27:42.817Z,9.00
2017-11-05T14:30:10.529Z,9.00
2017-11-05T14:32:38.126Z,9.00
2017-11-05T14:35:05.901Z,8.90
2017-11-05T14:37:33.484Z,8.90
2017-11-05T14:40:01.035Z,8.80
2017-11-05T14:42:28.784Z,8.70
2017-11-05T14:44:56.382Z,8.70
2017-11-05T14:47:24.209Z,8.60
2017-11-05T14:49:52.081Z,8.60
2017-11-05T14:52:19.942Z,8.60
2017-11-05T14:54:47.813Z,8.60
2017-11-05T14:57:15.444Z,8.60
2017-11-05T14:59:42.979Z,8.60
2017-11-05T15:02:11.298Z,8.50
2017-11-05T15:04:39.069Z,8.50
2017-11-05T15:07:06.622Z,8.50
2017-11-05T15:09:34.435Z,8.40
2017-11-05T15:12:02.200Z,8.40
2017-11-05T15:14:30.841Z,8.40
2017-11-05T15:16:58.434Z,8.40
2017-11-05T15:19:26.037Z,8.30
2017-11-05T15:21:53.827Z,8.30
2017-11-05T15:24:21.484Z,8.30
2017-11-05T15:26:49.251Z,8.30
2017-11-05T15:29:16.851Z,8.30
2017-11-05T15:31:46.214Z,8.20
2017-11-05T15:34:13.977Z,8.20
2017-11-05T15:36:41.842Z,8.10
2017-11-05T15:39:09.712Z,8.00
2017-11-05T15:41:37.251Z,7.90
2017-11-05T15:44:05.135Z,7.80
2017-11-05T15:46:32.726Z,7.80
2017-11-05T15:49:00.327Z,7.70
2017-11-05T15:51:28.703Z,7.60
2017-11-05T15:53:57.064Z,7.60
2017-11-05T15:56:25.905Z,7.50
2017-11-05T15:58:53.665Z,7.50
2017-11-05T16:01:21.531Z,7.50
2017-11-05T16:03:49.136Z,7.40
2017-11-05T16:06:16.895Z,7.40
2017-11-05T16:08:45.233Z,7.30
2017-11-05T16:11:12.996Z,7.30
2017-11-05T16:13:40.761Z,7.30
2017-11-05T16:16:08.308Z,7.40
2017-11-05T16:18:36.186Z,7.40
2017-11-05T16:21:03.755Z,7.40
2017-11-05T16:23:31.611Z,7.50
2017-11-05T16:25:59.213Z,7.50
2017-11-05T16:28:27.652Z,7.60
2017-11-05T16:30:55.313Z,7.60
2017-11-05T16:33:23.179Z,7.60
2017-11-05T16:35:50.743Z,7.70
2017-11-05T16:38:18.707Z,7.70
2017-11-05T16:40:46.295Z,7.60
2017-11-05T16:43:14.181Z,7.60
2017-11-05T16:45:42.490Z,7.60
2017-11-05T16:48:10.282Z,7.50
2017-11-05T16:50:37.881Z,7.50
2017-11-05T16:53:05.427Z,7.50
2017-11-05T16:55:33.261Z,7.40
2017-11-05T16:58:00.847Z,7.30
2017-11-05T17:00:28.423Z,7.30
2017-11-05T17:02:56.244Z,7.30
2017-11-05T17:05:23.887Z,7.30
2017-11-05T17:07:51.465Z,7.30
2017-11-05T17:10:19.330Z,7.30
2017-11-05T17:12:46.962Z,7.20
2017-11-05T17:15:15.522Z,7.20
2017-11-05T17:17:43.267Z,7.20
2017-11-05T17:20:10.847Z,7.20
2017-11-05T17:22:39.163Z,7.10
2017-11-05T17:25:06.795Z,7.10
2017-11-05T17:27:35.219Z,7.00
2017-11-05T17:30:03.082Z,7.00
2017-11-05T17:32:30.698Z,6.90
2017-11-05T17:34:59.185Z,6.90
2017-11-05T17:37:26.764Z,6.80
2017-11-05T17:39:54.287Z,6.80
2017-11-05T17:42:22.615Z,6.60
2017-11-05T17:44:50.485Z,6.60
2017-11-05T17:47:18.350Z,6.50
2017-11-05T17:49:46.115Z,6.50
2017-11-05T17:52:13.697Z,6.40
2017-11-05T17:54:41.262Z,6.50
2017-11-05T17:57:08.815Z,6.50
2017-11-05T17:59:36.659Z,6.50
2017-11-05T18:02:04.240Z,6.50
2017-11-05T18:04:32.024Z,6.50
2017-11-05T18:07:00.388Z,6.50
2017-11-05T18:09:28.943Z,5.20
2017-11-05T18:11:56.527Z,6.50
2017-11-05T18:14:24.051Z,6.60
2017-11-05T18:16:51.826Z,6.60
2017-11-05T18:19:20.613Z,6.50
2017-11-05T18:21:48.199Z,6.50
2017-11-05T18:24:15.820Z,6.50
2017-11-05T18:26:43.367Z,6.50
2017-11-05T18:29:10.920Z,6.60
2017-11-05T18:31:39.448Z,6.60
2017-11-05T18:34:07.301Z,6.60
2017-11-05T18:36:34.937Z,6.60
2017-11-05T18:39:02.827Z,6.50
2017-11-05T18:41:30.694Z,6.50
2017-11-05T18:43:58.663Z,6.50
2017-11-05T18:46:26.532Z,6.40
2017-11-05T18:48:54.095Z,6.40
2017-11-05T18:51:23.285Z,6.40
2017-11-05T18:53:50.867Z,6.40
2017-11-05T18:56:18.813Z,6.40
2017-11-05T18:58:46.407Z,6.30
2017-11-05T19:01:14.751Z,6.20
2017-11-05T19:03:42.617Z,6.20
2017-11-05T19:06:10.198Z,6.10
2017-11-05T19:08:37.740Z,6.00
2017-11-05T19:11:05.270Z,6.00
2017-11-05T19:13:32.800Z,5.90
2017-11-05T19:16:00.413Z,5.80
2017-11-05T19:18:27.920Z,5.80
2017-11-05T19:20:55.474Z,5.70
2017-11-05T19:23:22.994Z,5.70
2017-11-05T19:25:50.532Z,5.70
2017-11-05T19:28:18.082Z,5.60
2017-11-05T19:30:45.600Z,5.60
2017-11-05T19:33:13.103Z,5.60
2017-11-05T19:35:40.639Z,5.60
2017-11-05T19:38:08.908Z,5.50
2017-11-05T19:40:36.447Z,5.50
2017-11-05T19:43:03.969Z,5.40
2017-11-05T19:45:31.511Z,5.30
2017-11-05T19:47:59.031Z,5.30
2017-11-05T19:50:26.563Z,5.20
2017-11-05T19:52:54.073Z,5.10
2017-11-05T19:55:22.362Z,5.10
2017-11-05T19:57:49.962Z,5.10
2017-11-05T20:00:17.485Z,5.10
2017-11-05T20:02:45.018Z,5.10
2017-11-05T20:05:13.313Z,5.10
2017-11-05T20:07:41.584Z,5.10
2017-11-05T20:10:09.875Z,5.10
2017-11-05T20:12:37.414Z,5.10
2017-11-05T20:15:05.702Z,5.00
2017-11-05T20:17:33.243Z,5.00
2017-11-05T20:20:01.544Z,4.90
2017-11-05T20:22:29.428Z,4.90
2017-11-05T20:24:56.961Z,4.80
2017-11-05T20:27:24.762Z,4.80
2017-11-05T20:29:52.284Z,4.80
2017-11-05T20:32:20.569Z,4.70
2017-11-05T20:34:48.108Z,4.70
2017-11-05T20:37:16.376Z,4.70
2017-11-05T20:39:44.665Z,4.70
2017-11-05T20:42:12.958Z,4.70
2017-11-05T20:44:40.497Z,4.70
2017-11-05T20:47:08.774Z,4.90
2017-11-05T20:49:37.040Z,4.90
2017-11-05T20:52:04.579Z,4.90
2017-11-05T20:54:32.099Z,5.00
2017-11-05T20:56:59.636Z,5.00
2017-11-05T20:59:27.169Z,5.00
2017-11-05T21:01:54.693Z,5.00
2017-11-05T21:04:22.229Z,4.90
2017-11-05T21:06:49.741Z,4.90
2017-11-05T21:09:18.031Z,4.90
2017-11-05T21:11:46.335Z,4.80
2017-11-05T21:14:13.849Z,4.80
2017-11-05T21:16:41.393Z,4.90
2017-11-05T21:19:08.919Z,4.80
2017-11-05T21:21:36.438Z,4.80
2017-11-05T21:24:04.738Z,4.70
2017-11-05T21:26:32.258Z,4.70
2017-11-05T21:28:59.783Z,4.80
2017-11-05T21:31:27.307Z,4.80
2017-11-05T21:33:54.828Z,4.80
2017-11-05T21:36:22.328Z,4.80
2017-11-05T21:38:49.895Z,4.80
2017-11-05T21:41:18.344Z,4.80
2017-11-05T21:43:46.627Z,4.70
2017-11-05T21:46:14.919Z,4.70
2017-11-05T21:48:42.449Z,4.60
2017-11-05T21:51:10.753Z,4.60
2017-11-05T21:53:38.278Z,4.60
2017-11-05T21:56:07.325Z,4.60
2017-11-05T21:58:34.847Z,4.60
2017-11-05T22:01:03.121Z,4.50
2017-11-05T22:03:31.416Z,4.50
2017-11-05T22:05:58.916Z,4.50
2017-11-05T22:08:26.421Z,4.50
2017-11-05T22:10:54.727Z,4.40
2017-11-05T22:13:22.243Z,4.40
2017-11-05T22:15:50.563Z,4.40
2017-11-05T22:18:18.064Z,4.40
2017-11-05T22:20:45.581Z,4.40
2017-11-05T22:23:13.140Z,4.30
2017-11-05T22:25:40.648Z,4.30
2017-11-05T22:28:08.167Z,4.30
2017-11-05T22:30:35.735Z,4.30
2017-11-05T22:33:03.254Z,4.30
2017-11-05T22:35:30.792Z,4.30
2017-11-05T22:37:59.059Z,4.20
2017-11-05T22:40:26.558Z,4.20
2017-11-05T22:42:54.081Z,4.20
2017-11-05T22:45:22.367Z,4.10
2017-11-05T22:47:50.782Z,4.00
2017-11-05T22:50:18.303Z,4.00
2017-11-05T22:52:46.600Z,4.00
2017-11-05T22:55:14.101Z,4.00
2017-11-05T22:57:41.608Z,3.90
2017-11-05T23:00:09.140Z,3.90
2017-11-05T23:02:36.655Z,3.90
2017-11-05T23:05:04.191Z,3.90
2017-11-05T23:07:31.712Z,3.80
2017-11-05T23:09:59.212Z,3.80
2017-11-05T23:12:26.750Z,3.70
2017-11-05T23:14:55.020Z,3.80
2017-11-05T23:17:23.322Z,3.70
2017-11-05T23:19:50.838Z,3.70
2017-11-05T23:22:18.388Z,3.70
2017-11-05T23:24:45.911Z,3.70
2017-11-05T23:27:13.412Z,3.70
2017-11-05T23:29:40.956Z,3.70
2017-11-05T23:32:08.474Z,3.80
2017-11-05T23:34:35.995Z,3.70
2017-11-05T23:37:03.527Z,3.60
2017-11-05T23:39:31.035Z,3.60
2017-11-05T23:41:58.591Z,3.50
2017-11-05T23:44:26.875Z,3.40
2017-11-05T23:46:54.431Z,3.30
2017-11-05T23:49:21.940Z,3.30
2017-11-05T23:51:49.458Z,3.30
2017-11-05T23:54:17.006Z,3.30
2017-11-05T23:56:44.507Z,3.30
2017-11-05T23:59:12.023Z,3.20
